Time;durP1;ratioP1;P1;durP2;ratioP2;P2;SDS_P1;SDS_P2;PMS_P1;PMS_P2;Temp;Humidity;BMP_temperature;BMP_pressure;BME280_temperature;BME280_humidity;BME280_pressure;Samples;Min_cycle;Max_cycle;Signal;HPM_P1;HPM_P2
2022/08/05 00:00:22;;;;;;;2.00;1.35;;;28.70;96.70;;;;;;4981849;28;20047;-85
2022/08/05 00:02:52;;;;;;;3.05;1.25;;;28.60;96.70;;;;;;4985042;28;20792;-85
2022/08/05 00:05:20;;;;;;;3.38;1.85;;;28.60;96.70;;;;;;4978353;28;20125;-85
2022/08/05 00:08:10;;;;;;;1.83;1.40;;;28.40;96.70;;;;;;4982997;28;20051;-85
2022/08/05 00:10:58;;;;;;;3.75;1.67;;;28.40;96.70;;;;;;4982631;28;20112;-85
2022/08/05 00:13:31;;;;;;;3.05;1.58;;;28.30;96.70;;;;;;4983798;28;20060;-83
2022/08/05 00:16:09;;;;;;;1.98;1.55;;;28.20;96.70;;;;;;4975771;28;20097;-84
2022/08/05 00:18:43;;;;;;;2.70;1.40;;;28.10;96.70;;;;;;4981846;28;20054;-85
2022/08/05 00:21:32;;;;;;;7.20;1.52;;;28.00;96.70;;;;;;4963437;28;20050;-85
2022/08/05 00:24:04;;;;;;;1.77;1.63;;;28.10;96.70;;;;;;4963952;28;21087;-85
2022/08/05 00:26:38;;;;;;;2.55;1.38;;;28.30;96.70;;;;;;4976618;28;20472;-85
2022/08/05 00:29:18;;;;;;;1.58;1.40;;;28.40;96.70;;;;;;4980193;28;20128;-85
2022/08/05 00:31:52;;;;;;;1.55;1.42;;;28.50;96.70;;;;;;4964514;28;20601;-85
2022/08/05 00:34:41;;;;;;;2.70;1.50;;;28.60;96.70;;;;;;4969344;28;21104;-85
2022/08/05 00:37:29;;;;;;;2.00;1.42;;;28.60;96.70;;;;;;4971652;28;20054;-83
2022/08/05 00:40:20;;;;;;;2.28;1.40;;;28.70;96.70;;;;;;4963313;28;20072;-83
2022/08/05 00:42:57;;;;;;;2.15;1.88;;;28.90;96.70;;;;;;4968558;28;20046;-82
2022/08/05 00:45:26;;;;;;;3.20;1.58;;;28.80;96.70;;;;;;4981449;28;20510;-82
2022/08/05 00:48:12;;;;;;;3.53;1.23;;;28.90;96.70;;;;;;4975951;28;20048;-83
2022/08/05 00:50:41;;;;;;;2.25;1.45;;;29.10;96.70;;;;;;4950123;28;20491;-82
2022/08/05 00:53:13;;;;;;;2.85;1.40;;;29.10;96.70;;;;;;4984691;28;20141;-82
2022/08/05 00:56:03;;;;;;;3.60;1.60;;;29.30;96.70;;;;;;4983736;28;20058;-82
2022/08/05 00:58:31;;;;;;;3.65;1.38;;;29.20;96.70;;;;;;4984759;28;20184;-82
2022/08/05 01:00:59;;;;;;;1.30;1.20;;;29.10;96.70;;;;;;4968037;28;20420;-83
2022/08/05 01:03:29;;;;;;;3.85;1.50;;;29.20;96.70;;;;;;4962979;28;20145;-84
2022/08/05 01:06:01;;;;;;;1.80;1.40;;;29.20;96.70;;;;;;4969183;28;20042;-83
2022/08/05 01:08:32;;;;;;;3.70;1.63;;;29.20;96.70;;;;;;4984924;28;20621;-84
2022/08/05 01:11:16;;;;;;;2.28;1.65;;;29.20;96.70;;;;;;4984292;28;20043;-83
2022/08/05 01:13:59;;;;;;;1.85;1.50;;;29.20;96.70;;;;;;4980231;28;20055;-84
2022/08/05 01:16:33;;;;;;;2.15;1.60;;;29.00;96.70;;;;;;4982913;28;20165;-84
2022/08/05 01:19:11;;;;;;;3.72;1.40;;;29.00;96.70;;;;;;4978204;28;20665;-84
2022/08/05 01:22:05;;;;;;;3.75;1.52;;;29.00;96.70;;;;;;4969115;28;20698;-84
2022/08/05 01:24:53;;;;;;;2.30;1.20;;;29.20;96.70;;;;;;4982931;28;20594;-84
2022/08/05 01:27:58;;;;;;;3.15;1.48;;;29.00;96.70;;;;;;4968275;28;20053;-84
2022/08/05 01:30:30;;;;;;;2.35;1.42;;;28.80;96.70;;;;;;4980208;28;20153;-84
2022/08/05 01:33:05;;;;;;;2.80;1.58;;;28.70;96.70;;;;;;4969012;28;20057;-84
2022/08/05 01:35:39;;;;;;;1.48;1.30;;;28.90;96.70;;;;;;4969472;28;20046;-84
2022/08/05 01:38:21;;;;;;;2.25;1.52;;;29.00;96.70;;;;;;4974161;28;20050;-85
2022/08/05 01:40:56;;;;;;;3.70;1.80;;;29.10;96.70;;;;;;4961798;28;20056;-84
2022/08/05 01:43:28;;;;;;;2.13;1.50;;;28.90;96.70;;;;;;4967424;28;20046;-84
2022/08/05 01:45:57;;;;;;;2.85;1.55;;;28.80;96.70;;;;;;4982420;28;20074;-86
2022/08/05 01:48:45;;;;;;;3.63;1.20;;;28.80;96.70;;;;;;4983396;28;20080;-85
2022/08/05 01:51:17;;;;;;;3.70;1.60;;;28.80;96.70;;;;;;4983889;28;20050;-85
2022/08/05 01:53:49;;;;;;;2.08;1.45;;;29.00;96.70;;;;;;4968286;28;20063;-84
2022/08/05 01:56:29;;;;;;;3.63;1.80;;;29.00;96.70;;;;;;4969151;28;20141;-85
2022/08/05 01:59:22;;;;;;;3.60;1.80;;;29.10;96.70;;;;;;4984231;28;20081;-84
2022/08/05 02:01:55;;;;;;;2.33;1.70;;;29.10;96.70;;;;;;4982675;28;20050;-85
2022/08/05 02:04:26;;;;;;;2.13;1.58;;;29.00;96.70;;;;;;4978662;28;20104;-85
2022/08/05 02:06:57;;;;;;;3.17;1.90;;;29.00;96.70;;;;;;4968146;28;20073;-85
2022/08/05 02:09:26;;;;;;;2.35;1.80;;;28.90;96.70;;;;;;4978581;28;20059;-84
2022/08/05 02:12:00;;;;;;;3.72;1.85;;;28.70;96.70;;;;;;4981129;28;20234;-84
2022/08/05 02:14:35;;;;;;;3.22;1.65;;;28.60;96.70;;;;;;4962445;28;20047;-85
2022/08/05 02:17:09;;;;;;;2.42;1.80;;;28.60;96.70;;;;;;4981660;28;20042;-85
2022/08/05 02:20:00;;;;;;;3.22;1.90;;;28.60;96.70;;;;;;4959384;28;20050;-84
2022/08/05 02:22:32;;;;;;;2.15;1.85;;;28.60;96.70;;;;;;4980185;28;20083;-85
2022/08/05 02:25:05;;;;;;;4.63;2.08;;;28.60;96.70;;;;;;4962140;28;20041;-85
2022/08/05 02:27:36;;;;;;;4.40;2.35;;;28.60;96.70;;;;;;4965199;28;20043;-84
2022/08/05 02:30:30;;;;;;;3.85;2.83;;;28.60;96.70;;;;;;4973538;28;20495;-87
2022/08/05 02:33:02;;;;;;;4.20;2.10;;;28.40;96.70;;;;;;4982404;28;20047;-85
2022/08/05 02:35:34;;;;;;;5.00;1.85;;;28.40;96.70;;;;;;4965481;28;20053;-85
2022/08/05 02:38:05;;;;;;;4.57;2.42;;;28.30;96.70;;;;;;4978397;28;20078;-85
2022/08/05 02:40:39;;;;;;;4.00;2.67;;;28.30;96.70;;;;;;4966510;28;20631;-85
2022/08/05 02:43:12;;;;;;;5.10;2.50;;;28.20;96.70;;;;;;4977265;28;20618;-85
2022/08/05 02:45:45;;;;;;;2.97;2.10;;;28.10;96.70;;;;;;4972073;28;20157;-82
2022/08/05 02:48:21;;;;;;;5.07;1.90;;;28.10;96.70;;;;;;4956204;28;20117;-83
2022/08/05 02:50:58;;;;;;;2.47;1.70;;;28.00;96.70;;;;;;4983308;28;20051;-83
2022/08/05 02:53:29;;;;;;;2.72;1.70;;;28.00;96.70;;;;;;4963481;28;20047;-80
2022/08/05 02:56:10;;;;;;;4.43;2.25;;;28.00;96.70;;;;;;4978038;28;20070;-83
2022/08/05 02:58:46;;;;;;;4.80;2.10;;;28.00;96.70;;;;;;4973231;28;20774;-82
2022/08/05 03:01:24;;;;;;;3.92;2.05;;;28.00;96.70;;;;;;4964314;28;20057;-82
2022/08/05 03:03:57;;;;;;;4.75;1.70;;;27.90;96.70;;;;;;4975463;28;20521;-81
2022/08/05 03:06:29;;;;;;;;;;;28.00;96.70;;;;;;4976481;28;20069;-83
2022/08/05 03:09:17;;;;;;;;;;;27.90;96.70;;;;;;4961852;28;19933;-82
2022/08/05 03:12:06;;;;;;;2.25;1.85;;;27.70;96.70;;;;;;4971874;28;19929;-82
2022/08/05 03:14:34;;;;;;;2.17;1.55;;;27.90;96.70;;;;;;4978560;28;20047;-83
2022/08/05 03:17:14;;;;;;;3.42;1.77;;;28.00;96.70;;;;;;4975707;28;20121;-83
2022/08/05 03:19:42;;;;;;;2.67;1.50;;;27.90;96.70;;;;;;4978932;28;20047;-82
2022/08/05 03:22:13;;;;;;;4.68;1.58;;;27.80;96.70;;;;;;4963996;28;20062;-82
2022/08/05 03:24:47;;;;;;;5.18;1.98;;;27.80;96.70;;;;;;4978077;28;20054;-82
2022/08/05 03:27:19;;;;;;;2.83;1.70;;;27.60;96.70;;;;;;4965376;28;20114;-82
2022/08/05 03:29:48;;;;;;;2.95;1.40;;;27.60;96.70;;;;;;4978959;28;20527;-83
2022/08/05 03:32:38;;;;;;;4.53;1.83;;;27.60;96.70;;;;;;4966749;28;20047;-82
2022/08/05 03:35:07;;;;;;;3.45;1.77;;;27.60;96.70;;;;;;4980165;28;20070;-83
2022/08/05 03:37:36;;;;;;;2.13;1.50;;;27.50;96.70;;;;;;4979157;28;20524;-82
2022/08/05 03:40:13;;;;;;;4.57;1.77;;;27.50;96.70;;;;;;4977616;28;20386;-82
2022/08/05 03:42:58;;;;;;;2.95;1.45;;;27.50;96.70;;;;;;4958229;28;20045;-82
2022/08/05 03:45:46;;;;;;;2.38;1.38;;;27.50;96.70;;;;;;4970943;28;20069;-82
2022/08/05 03:48:26;;;;;;;2.90;1.88;;;27.50;96.70;;;;;;4971066;28;20050;-83
2022/08/05 03:51:02;;;;;;;4.00;1.88;;;27.30;96.70;;;;;;4963166;28;20041;-82
2022/08/05 03:53:56;;;;;;;3.70;1.95;;;27.30;96.70;;;;;;4979096;28;20501;-83
2022/08/05 03:56:46;;;;;;;3.60;2.00;;;27.40;96.70;;;;;;4973963;28;20061;-82
2022/08/05 03:59:20;;;;;;;3.90;1.85;;;27.40;96.70;;;;;;4978390;28;20055;-82
2022/08/05 04:01:54;;;;;;;3.33;1.83;;;27.40;96.70;;;;;;4977483;28;20845;-85
2022/08/05 04:04:29;;;;;;;3.88;1.70;;;27.30;96.70;;;;;;4962971;28;21461;-85
2022/08/05 04:06:59;;;;;;;7.93;2.70;;;27.20;96.70;;;;;;4957820;28;20567;-86
2022/08/05 04:09:28;;;;;;;3.38;1.60;;;27.20;96.70;;;;;;4977475;28;20055;-85
2022/08/05 04:12:04;;;;;;;8.45;1.90;;;27.20;96.70;;;;;;4980404;28;20590;-85
2022/08/05 04:14:51;;;;;;;1.35;1.25;;;27.20;96.70;;;;;;4964600;28;20066;-85
2022/08/05 04:17:22;;;;;;;3.97;1.70;;;27.30;96.70;;;;;;4966878;28;20042;-86
2022/08/05 04:20:19;;;;;;;2.42;1.67;;;27.20;96.70;;;;;;4973336;28;20050;-85
2022/08/05 04:22:50;;;;;;;6.05;2.00;;;27.10;96.70;;;;;;4963875;28;20122;-85
2022/08/05 04:25:18;;;;;;;6.03;1.55;;;27.10;96.70;;;;;;4957216;28;20423;-84
2022/08/05 04:28:05;;;;;;;3.85;1.77;;;27.20;96.70;;;;;;4972835;28;20555;-83
2022/08/05 04:30:39;;;;;;;3.88;1.83;;;27.20;96.70;;;;;;4965231;28;20051;-83
2022/08/05 04:33:09;;;;;;;3.58;1.90;;;27.20;96.70;;;;;;4970032;28;20043;-83
2022/08/05 04:35:40;;;;;;;3.95;1.80;;;27.20;96.70;;;;;;4985216;28;20042;-84
2022/08/05 04:38:28;;;;;;;6.85;1.83;;;27.30;96.70;;;;;;4983480;28;20042;-83
2022/08/05 04:41:06;;;;;;;4.15;1.80;;;27.20;96.70;;;;;;4969357;28;20042;-84
2022/08/05 04:43:38;;;;;;;4.32;1.70;;;27.10;96.70;;;;;;4971079;28;20039;-84
2022/08/05 04:46:13;;;;;;;4.65;1.60;;;27.10;96.70;;;;;;4935794;28;1494806;-83
2022/08/05 04:48:54;;;;;;;3.85;1.60;;;27.10;96.70;;;;;;4974614;28;20043;-84
2022/08/05 04:51:26;;;;;;;2.92;2.05;;;27.10;96.70;;;;;;4987422;28;20078;-83
2022/08/05 04:53:57;;;;;;;3.00;1.73;;;27.10;96.70;;;;;;4969813;28;20046;-83
2022/08/05 04:56:28;;;;;;;6.07;1.90;;;27.20;96.70;;;;;;4987397;28;20090;-84
2022/08/05 04:59:06;;;;;;;5.15;2.10;;;27.20;96.70;;;;;;4964021;28;20623;-83
2022/08/05 05:01:53;;;;;;;3.33;1.80;;;27.20;96.70;;;;;;4972246;28;20054;-84
2022/08/05 05:04:41;;;;;;;5.75;1.83;;;27.10;96.70;;;;;;4970314;28;20051;-84
2022/08/05 05:07:17;;;;;;;8.15;1.98;;;27.20;96.70;;;;;;4972140;28;20065;-83
2022/08/05 05:09:55;;;;;;;4.78;1.60;;;27.20;96.70;;;;;;4982835;28;20054;-84
2022/08/05 05:12:23;;;;;;;6.72;2.40;;;27.10;96.70;;;;;;4968864;28;20082;-82
2022/08/05 05:14:54;;;;;;;2.60;1.52;;;27.20;96.70;;;;;;4969614;28;20402;-83
2022/08/05 05:17:22;;;;;;;4.38;1.67;;;27.20;96.70;;;;;;4983602;28;20561;-84
2022/08/05 05:20:11;;;;;;;4.50;1.67;;;27.30;96.70;;;;;;4967445;28;20504;-81
2022/08/05 05:22:40;;;;;;;4.55;1.30;;;27.40;96.70;;;;;;4984251;28;20395;-83
2022/08/05 05:25:11;;;;;;;12.65;2.53;;;27.30;96.70;;;;;;4977884;28;20047;-84
2022/08/05 05:27:44;;;;;;;5.70;2.10;;;27.20;96.70;;;;;;4985908;28;20086;-84
2022/08/05 05:30:20;;;;;;;6.22;2.05;;;27.20;96.70;;;;;;4970614;28;20042;-84
2022/08/05 05:33:02;;;;;;;4.55;1.90;;;27.30;96.70;;;;;;4968283;28;20070;-83
2022/08/05 05:35:44;;;;;;;5.03;2.20;;;27.40;96.70;;;;;;4986285;28;20054;-83
2022/08/05 05:38:13;;;;;;;10.73;2.65;;;27.50;96.70;;;;;;4986095;28;20096;-85
2022/08/05 05:40:54;;;;;;;9.25;2.25;;;27.50;96.70;;;;;;4975912;28;20050;-85
2022/08/05 05:43:22;;;;;;;6.78;1.85;;;27.60;96.70;;;;;;4985772;28;20794;-85
2022/08/05 05:46:10;;;;;;;6.10;2.10;;;27.60;96.70;;;;;;4987425;28;20845;-83
2022/08/05 05:48:44;;;;;;;8.68;2.60;;;27.70;96.70;;;;;;4972318;28;20046;-85
2022/08/05 05:51:19;;;;;;;10.05;2.00;;;27.80;96.70;;;;;;4987645;28;20172;-82
2022/08/05 05:53:50;;;;;;;7.22;1.80;;;27.90;96.70;;;;;;4986082;28;20039;-84
2022/08/05 05:56:26;;;;;;;5.53;1.80;;;28.00;96.70;;;;;;4985874;28;20538;-83
2022/08/05 05:59:00;;;;;;;5.45;2.00;;;27.90;96.70;;;;;;4972601;28;20055;-86
2022/08/05 06:01:30;;;;;;;6.38;1.92;;;28.00;96.70;;;;;;4988446;28;20064;-84
2022/08/05 06:04:06;;;;;;;5.35;1.95;;;28.10;96.70;;;;;;4982043;28;20046;-82
2022/08/05 06:06:34;;;;;;;5.63;2.20;;;28.10;96.70;;;;;;4983581;28;20226;-82
2022/08/05 06:09:05;;;;;;;7.03;2.55;;;28.10;96.70;;;;;;4990295;28;20046;-85
2022/08/05 06:11:34;;;;;;;4.07;2.00;;;28.00;96.70;;;;;;4979793;28;20050;-84
2022/08/05 06:14:06;;;;;;;4.43;1.88;;;28.10;96.70;;;;;;4975445;28;20050;-86
2022/08/05 06:16:34;;;;;;;7.15;1.92;;;28.10;96.70;;;;;;4989902;28;20117;-87
2022/08/05 06:19:04;;;;;;;4.03;2.08;;;28.10;96.70;;;;;;4989437;28;20160;-86
2022/08/05 06:21:35;;;;;;;6.78;2.60;;;28.10;96.70;;;;;;4988265;28;20057;-82
2022/08/05 06:24:10;;;;;;;4.40;1.75;;;28.20;96.70;;;;;;4986719;28;20054;-85
2022/08/05 06:26:41;;;;;;;5.28;2.05;;;28.20;96.70;;;;;;4989328;28;20077;-85
2022/08/05 06:29:19;;;;;;;2.70;1.67;;;28.20;96.70;;;;;;4987935;28;20566;-85
2022/08/05 06:31:52;;;;;;;7.15;2.17;;;28.20;96.70;;;;;;4962497;28;20141;-83
2022/08/05 06:34:20;;;;;;;5.25;2.30;;;28.20;96.70;;;;;;4989683;28;20042;-84
2022/08/05 06:36:52;;;;;;;5.47;1.90;;;28.20;96.70;;;;;;4983245;28;20046;-86
2022/08/05 06:39:26;;;;;;;6.32;2.08;;;28.20;96.70;;;;;;4984200;28;20074;-80
2022/08/05 06:41:55;;;;;;;5.38;2.15;;;28.40;96.70;;;;;;4992289;28;20507;-82
2022/08/05 06:44:25;;;;;;;4.57;2.03;;;28.40;96.70;;;;;;4981550;28;20049;-86
2022/08/05 06:46:54;;;;;;;5.22;2.28;;;28.60;96.70;;;;;;4972508;28;20124;-86
2022/08/05 06:49:23;;;;;;;6.07;2.10;;;28.70;96.70;;;;;;4986244;28;20054;-86
2022/08/05 06:52:10;;;;;;;4.47;1.90;;;28.70;96.70;;;;;;4988550;28;20701;-86
2022/08/05 06:55:00;;;;;;;2.50;1.98;;;28.80;96.70;;;;;;4986271;28;20129;-84
2022/08/05 06:57:29;;;;;;;2.80;1.92;;;28.90;96.70;;;;;;4988408;28;20072;-85
2022/08/05 07:00:17;;;;;;;3.55;2.05;;;28.90;96.70;;;;;;4989468;28;20093;-88
2022/08/05 07:02:51;;;;;;;2.38;1.88;;;28.90;96.70;;;;;;4985020;28;20054;-87
2022/08/05 07:05:20;;;;;;;4.47;2.03;;;28.90;96.70;;;;;;4970147;28;20141;-85
2022/08/05 07:08:04;;;;;;;4.32;1.95;;;28.80;96.70;;;;;;4982605;28;20038;-89
2022/08/05 07:10:39;;;;;;;4.78;2.20;;;28.80;96.70;;;;;;4988264;28;20122;-86
2022/08/05 07:19:34;;;;;;;3.75;2.00;;;28.90;96.70;;;;;;4989142;28;20496;-84
2022/08/05 07:22:22;;;;;;;4.20;2.45;;;28.90;96.70;;;;;;4983138;28;20120;-84
2022/08/05 07:24:58;;;;;;;3.17;2.10;;;29.10;96.70;;;;;;4972844;28;20416;-84
2022/08/05 07:27:48;;;;;;;5.03;2.28;;;29.20;96.70;;;;;;4963032;28;20560;-86
2022/08/05 07:30:31;;;;;;;5.45;2.25;;;29.20;96.70;;;;;;4985807;28;20706;-85
2022/08/05 07:33:02;;;;;;;5.72;3.03;;;29.30;96.70;;;;;;4987712;28;20046;-84
2022/08/05 07:35:36;;;;;;;4.15;3.35;;;29.40;96.70;;;;;;4987435;28;20200;-86
2022/08/05 07:38:24;;;;;;;3.35;2.83;;;29.40;96.70;;;;;;4987440;28;20136;-87
2022/08/05 07:41:03;;;;;;;4.75;2.40;;;29.50;96.70;;;;;;4985584;28;20152;-84
2022/08/05 07:43:53;;;;;;;4.65;2.65;;;29.50;96.70;;;;;;4970756;28;20046;-84
2022/08/05 07:46:25;;;;;;;3.08;2.55;;;29.50;96.70;;;;;;4986992;28;20092;-84
2022/08/05 07:48:54;;;;;;;4.38;3.05;;;29.60;96.70;;;;;;4983677;28;20076;-83
2022/08/05 07:51:33;;;;;;;3.55;2.95;;;29.50;96.70;;;;;;4981975;28;20042;-83
2022/08/05 07:54:05;;;;;;;3.17;2.70;;;29.50;96.70;;;;;;4988044;28;20046;-84
2022/08/05 07:56:36;;;;;;;2.83;2.35;;;29.60;96.70;;;;;;4986489;28;20431;-85
2022/08/05 07:59:26;;;;;;;3.58;2.70;;;29.60;96.70;;;;;;4987204;28;20058;-83
2022/08/05 08:02:08;;;;;;;3.33;2.75;;;29.70;96.70;;;;;;4977803;28;20058;-83
2022/08/05 08:04:45;;;;;;;3.88;2.45;;;29.80;96.70;;;;;;4984649;28;20046;-83
2022/08/05 08:07:13;;;;;;;4.07;2.60;;;29.80;96.70;;;;;;4985276;28;20516;-83
2022/08/05 08:09:41;;;;;;;5.45;2.92;;;29.70;96.70;;;;;;4988126;28;20133;-84
2022/08/05 08:12:12;;;;;;;5.00;2.65;;;29.70;96.70;;;;;;4986340;28;20358;-85
2022/08/05 08:15:02;;;;;;;5.85;3.28;;;29.80;96.70;;;;;;4986125;28;20038;-85
2022/08/05 08:17:31;;;;;;;4.38;3.20;;;29.90;96.70;;;;;;4985221;28;20058;-82
2022/08/05 08:19:59;;;;;;;4.90;2.70;;;29.90;96.70;;;;;;4983298;28;20042;-83
2022/08/05 08:22:51;;;;;;;3.85;2.70;;;29.90;96.70;;;;;;4981694;28;20611;-83
2022/08/05 08:25:19;;;;;;;4.85;2.35;;;30.00;96.70;;;;;;4981620;28;20051;-83
2022/08/05 08:28:07;;;;;;;3.35;2.63;;;30.10;96.70;;;;;;4984754;28;20142;-84
2022/08/05 08:30:47;;;;;;;5.63;3.17;;;30.10;96.70;;;;;;4964813;28;20530;-83
2022/08/05 08:33:16;;;;;;;4.20;2.63;;;30.10;96.70;;;;;;4982427;28;20146;-84
2022/08/05 08:35:46;;;;;;;3.40;2.78;;;30.10;96.70;;;;;;4983831;28;20564;-82
2022/08/05 08:38:21;;;;;;;2.90;2.60;;;30.30;96.70;;;;;;4985595;28;20050;-84
2022/08/05 08:41:07;;;;;;;4.45;2.95;;;30.50;96.70;;;;;;4985845;28;20054;-83
2022/08/05 08:43:37;;;;;;;2.80;2.40;;;30.50;96.70;;;;;;4969851;28;20047;-84
2022/08/05 08:46:31;;;;;;;3.88;2.75;;;30.60;96.70;;;;;;4984755;28;20094;-86
2022/08/05 08:48:59;;;;;;;4.25;2.78;;;30.60;96.70;;;;;;4986238;28;20129;-85
2022/08/05 08:51:53;;;;;;;6.28;3.03;;;30.70;96.70;;;;;;4980608;28;20046;-84
2022/08/05 08:54:34;;;;;;;6.68;2.70;;;30.80;96.70;;;;;;4987326;28;20575;-85
2022/08/05 08:57:07;;;;;;;3.70;3.00;;;30.90;96.70;;;;;;4988426;28;20066;-86
2022/08/05 08:59:41;;;;;;;5.38;2.60;;;30.90;96.70;;;;;;4983812;28;20151;-85
2022/08/05 09:02:19;;;;;;;2.70;2.50;;;31.00;96.70;;;;;;4990390;28;20050;-85
2022/08/05 09:04:51;;;;;;;2.85;2.38;;;31.10;96.70;;;;;;4987526;28;20061;-85
2022/08/05 09:07:39;;;;;;;3.03;2.60;;;31.20;96.70;;;;;;4982794;28;20042;-85
2022/08/05 09:10:25;;;;;;;3.45;2.38;;;31.20;96.70;;;;;;4987440;28;20500;-85
2022/08/05 09:12:54;;;;;;;3.00;2.33;;;31.30;96.70;;;;;;4989565;28;20038;-86
2022/08/05 09:15:23;;;;;;;3.03;2.75;;;31.30;96.70;;;;;;4991864;28;20073;-87
2022/08/05 09:17:53;;;;;;;4.85;2.72;;;31.30;96.70;;;;;;4989942;28;20035;-86
2022/08/05 09:20:21;;;;;;;4.68;2.67;;;31.40;96.70;;;;;;4985786;28;20125;-86
2022/08/05 09:23:08;;;;;;;5.82;3.13;;;31.50;96.70;;;;;;4988288;28;20444;-86
2022/08/05 09:25:48;;;;;;;2.83;2.58;;;31.50;96.70;;;;;;4982976;28;20047;-85
2022/08/05 09:28:31;;;;;;;4.18;2.75;;;31.50;96.70;;;;;;4988237;28;20042;-85
2022/08/05 09:31:03;;;;;;;4.03;3.00;;;31.40;96.70;;;;;;4986321;28;20046;-86
2022/08/05 09:33:57;;;;;;;4.35;2.95;;;31.60;96.70;;;;;;4984489;28;20053;-85
2022/08/05 09:36:39;;;;;;;4.30;2.70;;;31.70;96.70;;;;;;4988775;28;20058;-85
2022/08/05 09:39:23;;;;;;;3.15;2.92;;;31.70;96.70;;;;;;4985305;28;20073;-84
2022/08/05 09:42:14;;;;;;;3.78;2.58;;;31.80;96.70;;;;;;4987448;28;20144;-85
2022/08/05 09:44:55;;;;;;;3.85;2.13;;;31.90;96.70;;;;;;4985847;28;20058;-83
2022/08/05 09:47:43;;;;;;;3.10;2.80;;;31.80;96.70;;;;;;4969850;28;20071;-83
2022/08/05 09:50:34;;;;;;;3.15;1.92;;;31.90;96.70;;;;;;4985888;28;20051;-84
2022/08/05 09:53:10;;;;;;;2.58;1.77;;;32.10;96.70;;;;;;4978874;28;20046;-84
2022/08/05 09:55:55;;;;;;;3.80;1.60;;;32.20;96.70;;;;;;4971705;28;20058;-84
2022/08/05 09:58:30;;;;;;;4.10;1.50;;;32.30;96.70;;;;;;4971181;28;20484;-83
2022/08/05 10:01:01;;;;;;;2.28;1.70;;;32.40;96.70;;;;;;4969681;28;20043;-87
2022/08/05 10:03:54;;;;;;;2.47;2.00;;;32.60;96.70;;;;;;4980227;28;20058;-80
2022/08/05 10:06:28;;;;;;;3.92;1.95;;;32.70;96.70;;;;;;4963019;28;20051;-80
2022/08/05 10:09:10;;;;;;;4.30;2.20;;;32.80;96.70;;;;;;4969526;28;20125;-84
2022/08/05 10:12:08;;;;;;;1.83;1.58;;;32.80;96.70;;;;;;4980072;28;20051;-84
2022/08/05 10:15:14;;;;;;;4.60;1.75;;;32.90;96.70;;;;;;4982454;28;20081;-86
2022/08/05 10:18:04;;;;;;;3.55;1.80;;;33.00;96.70;;;;;;4970376;28;20035;-85
2022/08/05 10:20:36;;;;;;;2.25;2.05;;;33.10;96.70;;;;;;4970591;28;20046;-86
2022/08/05 10:23:06;;;;;;;6.50;2.05;;;33.20;96.70;;;;;;4968403;28;20061;-85
2022/08/05 10:25:55;;;;;;;4.78;1.90;;;33.20;96.70;;;;;;4974680;28;20071;-84
2022/08/05 10:28:25;;;;;;;4.28;1.60;;;33.40;96.70;;;;;;4984344;28;20078;-84
2022/08/05 10:30:57;;;;;;;4.22;1.40;;;33.50;96.70;;;;;;4983394;28;20053;-86
2022/08/05 10:33:46;;;;;;;4.05;2.00;;;33.70;96.70;;;;;;4985670;28;20108;-86
2022/08/05 10:36:21;;;;;;;2.90;1.60;;;33.70;96.70;;;;;;4966895;28;20500;-86
2022/08/05 10:39:01;;;;;;;2.30;1.55;;;33.80;96.70;;;;;;4969617;28;20078;-84
2022/08/05 10:41:58;;;;;;;2.67;1.45;;;34.00;96.70;;;;;;4967531;28;20047;-84
2022/08/05 10:44:30;;;;;;;2.60;1.67;;;34.10;96.70;;;;;;4985088;28;20059;-84
2022/08/05 10:47:09;;;;;;;1.70;1.60;;;34.20;96.70;;;;;;4987948;28;20050;-84
2022/08/05 10:50:05;;;;;;;1.90;1.52;;;34.20;96.70;;;;;;4973380;28;20050;-84
2022/08/05 10:52:58;;;;;;;1.77;1.40;;;34.30;96.70;;;;;;4986560;28;20056;-83
2022/08/05 10:55:30;;;;;;;2.28;1.23;;;34.30;96.70;;;;;;4986128;28;20046;-83
2022/08/05 10:58:19;;;;;;;3.42;1.70;;;34.50;96.70;;;;;;4968335;28;20129;-83
2022/08/05 11:01:07;;;;;;;2.17;1.42;;;34.60;96.70;;;;;;4972089;28;20403;-82
2022/08/05 11:04:03;;;;;;;5.05;1.50;;;34.60;96.70;;;;;;4986283;28;20506;-86
2022/08/05 11:06:34;;;;;;;1.45;1.35;;;34.70;96.70;;;;;;4987580;28;20050;-86
2022/08/05 11:09:27;;;;;;;1.70;1.17;;;34.80;96.70;;;;;;4987868;28;20050;-86
2022/08/05 11:12:45;;;;;;;2.97;1.30;;;34.80;96.70;;;;;;4969007;28;20062;-87
2022/08/05 11:15:26;;;;;;;2.30;1.17;;;34.90;96.70;;;;;;4983797;28;20508;-86
2022/08/05 11:18:27;;;;;;;2.95;1.30;;;35.10;96.70;;;;;;4986472;28;20054;-85
2022/08/05 11:20:57;;;;;;;2.45;1.10;;;35.30;96.70;;;;;;4986830;28;20057;-84
2022/08/05 11:23:29;;;;;;;3.15;1.38;;;35.10;96.70;;;;;;4986893;28;20492;-85
2022/08/05 11:26:22;;;;;;;6.50;1.50;;;35.20;96.70;;;;;;4972171;28;20089;-84
2022/08/05 11:28:57;;;;;;;3.55;1.20;;;35.30;96.70;;;;;;4985913;28;20057;-86
2022/08/05 11:31:42;;;;;;;3.30;1.25;;;35.30;96.70;;;;;;4980174;28;20050;-86
2022/08/05 11:34:41;;;;;;;2.38;1.30;;;35.20;96.70;;;;;;4983543;28;20106;-85
2022/08/05 11:37:58;;;;;;;2.50;1.17;;;35.40;96.70;;;;;;4980585;28;20042;-86
2022/08/05 11:41:00;;;;;;;3.10;1.20;;;35.40;96.70;;;;;;4981853;28;20124;-86
2022/08/05 11:44:02;;;;;;;6.78;2.15;;;35.30;96.70;;;;;;4989520;28;20041;-85
2022/08/05 11:46:36;;;;;;;1.90;1.20;;;35.40;96.20;;;;;;4980786;28;20056;-85
2022/08/05 11:49:24;;;;;;;3.78;1.15;;;35.40;95.00;;;;;;4983931;28;20050;-85
2022/08/05 11:51:54;;;;;;;2.72;1.17;;;35.50;93.30;;;;;;4986396;28;20050;-85
2022/08/05 11:54:26;;;;;;;4.38;1.10;;;35.50;94.30;;;;;;4971589;28;20598;-85
2022/08/05 11:57:02;;;;;;;5.88;1.08;;;35.70;93.80;;;;;;4982837;28;20086;-85
2022/08/05 11:59:52;;;;;;;5.72;1.13;;;35.80;94.40;;;;;;4989197;28;20519;-86
2022/08/05 12:02:28;;;;;;;4.13;1.10;;;35.70;93.40;;;;;;4987261;28;20046;-86
2022/08/05 12:05:02;;;;;;;2.45;0.85;;;35.80;91.90;;;;;;4987143;28;20061;-88
2022/08/05 12:07:37;;;;;;;3.37;1.27;;;35.60;92.70;;;;;;4988299;28;20129;-87
2022/08/05 12:10:27;;;;;;;1.40;0.90;;;35.70;91.70;;;;;;4972244;28;20062;-86
2022/08/05 12:13:13;;;;;;;3.67;1.20;;;35.70;92.40;;;;;;4986933;28;20051;-88
2022/08/05 12:15:47;;;;;;;2.85;0.88;;;35.70;92.20;;;;;;4975122;28;20095;-86
2022/08/05 12:18:17;;;;;;;1.10;0.90;;;35.70;91.50;;;;;;4987011;28;20060;-86
2022/08/05 12:20:51;;;;;;;3.20;1.08;;;35.60;91.20;;;;;;4986221;28;20085;-86
2022/08/05 12:23:19;;;;;;;1.60;1.00;;;35.60;91.10;;;;;;4986873;28;20046;-85
2022/08/05 12:25:52;;;;;;;3.53;0.95;;;35.70;90.30;;;;;;4983159;28;20042;-90
2022/08/05 12:28:39;;;;;;;3.00;0.90;;;35.70;88.80;;;;;;4986565;28;20058;-85
2022/08/05 12:31:16;;;;;;;2.28;0.88;;;35.90;89.30;;;;;;4985140;28;20054;-84
2022/08/05 12:34:07;;;;;;;2.40;0.90;;;35.90;89.20;;;;;;4990637;28;20579;-81
2022/08/05 12:36:48;;;;;;;1.15;0.77;;;35.80;88.90;;;;;;4986312;28;20151;-84
2022/08/05 12:39:17;;;;;;;3.88;0.90;;;35.80;86.60;;;;;;4990168;28;20042;-80
2022/08/05 12:41:46;;;;;;;7.10;1.33;;;35.90;88.30;;;;;;4987993;28;20034;-80
2022/08/05 12:44:17;;;;;;;1.30;1.00;;;36.00;89.40;;;;;;4986865;28;20050;-82
2022/08/05 12:47:02;;;;;;;4.05;0.98;;;36.10;88.90;;;;;;4986071;28;20069;-78
2022/08/05 12:49:45;;;;;;;1.15;0.90;;;36.20;89.40;;;;;;4983156;28;20137;-78
2022/08/05 12:52:34;;;;;;;0.80;0.80;;;36.20;89.40;;;;;;4970877;28;20046;-78
2022/08/05 12:55:20;;;;;;;3.17;0.82;;;36.00;87.10;;;;;;4979927;28;20428;-79
2022/08/05 12:57:51;;;;;;;4.32;0.80;;;35.80;87.00;;;;;;4985896;28;20050;-78
2022/08/05 13:00:44;;;;;;;4.13;0.93;;;35.80;86.20;;;;;;4983681;28;20038;-79
2022/08/05 13:03:36;;;;;;;3.78;0.90;;;35.80;89.00;;;;;;4975371;28;20227;-78
2022/08/05 13:06:13;;;;;;;4.18;1.00;;;35.70;86.60;;;;;;4987927;28;20046;-79
2022/08/05 13:08:44;;;;;;;6.18;1.02;;;35.80;86.40;;;;;;4985487;28;20599;-80
2022/08/05 13:11:20;;;;;;;3.35;1.00;;;35.80;86.50;;;;;;4967555;28;20405;-82
2022/08/05 13:14:16;;;;;;;3.17;0.82;;;35.70;86.40;;;;;;4981996;28;20069;-82
2022/08/05 13:16:48;;;;;;;1.90;0.88;;;35.70;85.90;;;;;;4989538;28;20042;-87
2022/08/05 13:19:21;;;;;;;2.42;1.00;;;35.70;86.90;;;;;;4964051;28;20050;-84
2022/08/05 13:21:50;;;;;;;3.80;0.73;;;35.90;87.60;;;;;;4985461;28;20046;-81
2022/08/05 13:24:24;;;;;;;0.80;0.75;;;35.80;86.20;;;;;;4982082;28;20564;-78
2022/08/05 13:27:12;;;;;;;0.90;0.90;;;35.90;86.30;;;;;;4986291;28;20120;-81
2022/08/05 13:30:00;;;;;;;3.20;0.80;;;35.80;86.40;;;;;;4973732;28;20146;-81
2022/08/05 13:32:50;;;;;;;5.22;0.90;;;36.00;86.40;;;;;;4986147;28;20536;-85
2022/08/05 13:35:21;;;;;;;5.43;1.20;;;36.20;86.80;;;;;;4988503;28;20061;-80
2022/08/05 13:38:09;;;;;;;2.90;0.90;;;36.10;86.30;;;;;;4983286;28;20046;-84
2022/08/05 13:40:58;;;;;;;3.60;0.77;;;36.10;87.70;;;;;;4988722;28;20339;-84
2022/08/05 13:43:27;;;;;;;10.13;1.33;;;36.30;88.10;;;;;;4968165;28;20078;-79
2022/08/05 13:46:16;;;;;;;3.70;0.80;;;36.40;87.70;;;;;;4978622;28;20069;-83
2022/08/05 13:49:04;;;;;;;0.90;0.73;;;36.40;84.80;;;;;;4968373;28;20043;-81
2022/08/05 13:51:43;;;;;;;9.70;1.40;;;36.40;86.20;;;;;;4968084;28;20074;-82